createdAt,value
2022-10-06T00:01:38.374Z,98310.19
2022-10-06T00:04:11.169Z,98309.16
2022-10-06T00:06:41.324Z,98317.81
2022-10-06T00:09:11.496Z,98311.97
2022-10-06T00:11:41.841Z,98317.06
2022-10-06T00:14:12.063Z,98319.34
2022-10-06T00:16:42.255Z,98314.50
2022-10-06T00:19:15.118Z,98313.22
2022-10-06T00:21:45.387Z,98306.84
2022-10-06T00:24:15.692Z,98298.94
2022-10-06T00:26:46.349Z,98309.66
2022-10-06T00:29:16.571Z,98299.72
2022-10-06T00:31:46.790Z,98292.59
2022-10-06T00:34:19.554Z,98299.72
2022-10-06T00:36:49.755Z,98303.28
2022-10-06T00:39:20.143Z,98295.91
2022-10-06T00:41:50.343Z,98309.66
2022-10-06T00:44:20.518Z,98300.22
2022-10-06T00:46:53.768Z,98301.25
2022-10-06T00:49:31.651Z,98306.34
2022-10-06T00:52:07.294Z,98312.72
2022-10-06T00:54:38.877Z,98314.22
2022-10-06T00:57:10.087Z,98309.63
2022-10-06T00:59:42.094Z,98314.47
2022-10-06T01:02:18.147Z,98307.09
2022-10-06T01:04:55.936Z,98310.91
2022-10-06T01:07:30.413Z,98318.25
2022-10-06T01:10:01.534Z,98319.28
2022-10-06T01:12:37.745Z,98322.56
2022-10-06T01:15:10.315Z,98309.06
2022-10-06T01:17:45.027Z,98320.25
2022-10-06T01:20:23.306Z,98320.53
2022-10-06T01:22:59.984Z,98322.53
2022-10-06T01:25:34.383Z,98330.41
2022-10-06T01:28:07.630Z,98316.97
2022-10-06T01:30:44.094Z,98323.06
2022-10-06T01:33:14.570Z,98345.25
2022-10-06T01:35:44.877Z,98338.63
2022-10-06T01:38:17.978Z,98338.63
2022-10-06T01:40:55.398Z,98345.72
2022-10-06T01:43:25.646Z,98348.25
2022-10-06T01:45:58.355Z,98351.78
2022-10-06T01:48:29.397Z,98356.09
2022-10-06T01:51:01.825Z,98362.94
2022-10-06T01:53:36.319Z,98364.44
2022-10-06T01:56:06.540Z,98372.88
2022-10-06T01:58:36.856Z,98363.72
2022-10-06T02:01:08.879Z,98372.63
2022-10-06T02:03:41.726Z,98368.03
2022-10-06T02:06:13.302Z,98376.59
2022-10-06T02:08:48.852Z,98378.91
2022-10-06T02:11:20.588Z,98379.16
2022-10-06T02:13:52.642Z,98385.19
2022-10-06T02:16:23.782Z,98383.91
2022-10-06T02:18:54.879Z,98386.66
2022-10-06T02:21:26.555Z,98384.91
2022-10-06T02:23:59.556Z,98393.31
2022-10-06T02:26:30.644Z,98393.06
2022-10-06T02:29:01.343Z,98389.22
2022-10-06T02:31:31.804Z,98390.00
2022-10-06T02:34:02.478Z,98387.47
2022-10-06T02:36:33.101Z,98382.69
2022-10-06T02:39:06.590Z,98386.00
2022-10-06T02:41:36.837Z,98389.25
2022-10-06T02:44:07.071Z,98375.25
2022-10-06T02:46:37.449Z,98386.44
2022-10-06T02:49:07.800Z,98383.88
2022-10-06T02:51:38.911Z,98392.97
2022-10-06T02:54:12.568Z,98398.03
2022-10-06T02:56:42.828Z,98414.28
2022-10-06T02:59:12.972Z,98408.41
2022-10-06T03:01:45.180Z,98416.59
2022-10-06T03:04:19.467Z,98418.63
2022-10-06T03:06:49.730Z,98423.41
2022-10-06T03:09:28.396Z,98425.41
2022-10-06T03:11:59.559Z,98422.84
2022-10-06T03:14:36.726Z,98431.00
2022-10-06T03:17:08.659Z,98433.50
2022-10-06T03:19:40.301Z,98440.16
2022-10-06T03:22:12.235Z,98447.56
2022-10-06T03:24:51.900Z,98446.75
2022-10-06T03:27:22.156Z,98444.19
2022-10-06T03:29:54.442Z,98443.72
2022-10-06T03:32:27.037Z,98450.00
2022-10-06T03:34:57.321Z,98450.28
2022-10-06T03:37:27.663Z,98458.97
2022-10-06T03:40:01.431Z,98455.06
2022-10-06T03:42:32.437Z,98457.84
2022-10-06T03:45:02.756Z,98458.88
2022-10-06T03:47:33.771Z,98466.97
2022-10-06T03:50:04.090Z,98470.34
2022-10-06T03:52:34.805Z,98471.56
2022-10-06T03:55:08.650Z,98481.22
2022-10-06T03:57:38.800Z,98469.75
2022-10-06T04:00:11.081Z,98475.06
2022-10-06T04:02:42.471Z,98484.22
2022-10-06T04:05:13.238Z,98490.88
2022-10-06T04:07:43.945Z,98495.97
2022-10-06T04:10:17.202Z,98500.50
2022-10-06T04:12:47.662Z,98501.50
2022-10-06T04:15:18.163Z,98503.84
2022-10-06T04:17:48.425Z,98510.69
2022-10-06T04:20:19.121Z,98509.72
2022-10-06T04:22:49.311Z,98530.31
2022-10-06T04:25:22.280Z,98515.41
2022-10-06T04:27:53.515Z,98527.13
2022-10-06T04:30:23.875Z,98530.22
2022-10-06T04:32:54.064Z,98538.88
2022-10-06T04:35:24.408Z,98547.75
2022-10-06T04:37:56.363Z,98541.69
2022-10-06T04:40:29.273Z,98544.72
2022-10-06T04:42:59.480Z,98544.00
2022-10-06T04:45:29.851Z,98547.81
2022-10-06T04:48:00.258Z,98548.34
2022-10-06T04:50:30.586Z,98543.28
2022-10-06T04:53:09.502Z,98552.25
2022-10-06T04:55:43.150Z,98554.56
2022-10-06T04:58:13.535Z,98550.69
2022-10-06T05:00:43.809Z,98554.28
2022-10-06T05:03:14.137Z,98561.13
2022-10-06T05:05:44.582Z,98561.34
2022-10-06T05:08:14.867Z,98571.53
2022-10-06T05:10:47.853Z,98572.59
2022-10-06T05:13:18.195Z,98570.53
2022-10-06T05:15:59.314Z,98569.75
2022-10-06T05:18:33.030Z,98575.59
2022-10-06T05:21:07.187Z,98583.72
2022-10-06T05:23:41.213Z,98590.63
2022-10-06T05:26:15.577Z,98584.81
2022-10-06T05:28:46.465Z,98593.47
2022-10-06T05:31:19.583Z,98597.06
2022-10-06T05:33:50.682Z,98595.78
2022-10-06T05:36:23.510Z,98599.63
2022-10-06T05:38:56.273Z,98604.72
2022-10-06T05:41:31.599Z,98604.22
2022-10-06T05:44:04.673Z,98615.47
2022-10-06T05:46:37.646Z,98618.63
2022-10-06T05:49:10.729Z,98614.72
2022-10-06T05:51:44.697Z,98631.22
2022-10-06T05:54:20.039Z,98628.88
2022-10-06T05:56:52.962Z,98629.84
2022-10-06T05:59:23.104Z,98636.28
2022-10-06T06:01:54.795Z,98644.13
2022-10-06T06:04:38.188Z,98642.41
2022-10-06T06:07:08.609Z,98646.03
2022-10-06T06:09:40.353Z,98649.53
2022-10-06T06:12:13.633Z,98657.94
2022-10-06T06:15:08.469Z,98671.94
2022-10-06T06:17:43.803Z,98683.66
2022-10-06T06:20:24.578Z,98696.41
2022-10-06T06:22:56.211Z,98713.19
2022-10-06T06:25:29.898Z,98722.78
2022-10-06T06:28:02.826Z,98734.25
2022-10-06T06:30:33.049Z,98748.19
2022-10-06T06:33:03.219Z,98760.09
2022-10-06T06:35:34.490Z,98782.28
2022-10-06T06:38:04.888Z,98785.19
2022-10-06T06:40:35.138Z,98790.97
2022-10-06T06:43:07.978Z,98806.88
2022-10-06T06:45:50.482Z,98827.06
2022-10-06T06:48:32.082Z,98826.44
2022-10-06T06:51:02.765Z,98829.25
2022-10-06T06:53:35.456Z,98834.25
2022-10-06T06:56:07.197Z,98838.59
2022-10-06T06:58:42.259Z,98840.91
2022-10-06T07:01:15.263Z,98851.88
2022-10-06T07:03:58.030Z,98843.03
2022-10-06T07:06:33.582Z,98855.25
2022-10-06T07:09:06.039Z,98855.72
2022-10-06T07:11:38.868Z,98867.63
2022-10-06T07:14:16.137Z,98876.91
2022-10-06T07:17:00.963Z,98878.16
2022-10-06T07:19:53.053Z,98892.03
2022-10-06T07:22:39.753Z,98890.91
2022-10-06T07:25:26.074Z,98920.25
2022-10-06T07:28:07.953Z,98918.88
2022-10-06T07:30:44.974Z,98915.09
2022-10-06T07:33:22.509Z,98930.31
2022-10-06T07:35:53.807Z,98938.78
2022-10-06T07:38:26.008Z,98944.84
2022-10-06T07:43:53.925Z,98951.34
2022-10-06T07:46:27.785Z,98947.25
2022-10-06T07:49:06.309Z,98939.78
2022-10-06T07:51:36.468Z,98934.69
2022-10-06T07:54:08.504Z,98945.31
2022-10-06T07:56:47.534Z,98947.78
2022-10-06T07:59:19.788Z,98947.59
2022-10-06T08:01:52.998Z,98955.66
2022-10-06T08:04:23.201Z,98959.03
2022-10-06T08:06:54.639Z,98963.47
2022-10-06T08:09:24.774Z,98971.25
2022-10-06T08:11:54.830Z,98986.72
2022-10-06T08:14:25.109Z,98991.28
2022-10-06T08:16:59.071Z,98983.56
2022-10-06T08:19:29.241Z,98991.44
2022-10-06T08:22:04.408Z,98998.47
2022-10-06T08:25:00.988Z,99002.03
2022-10-06T08:27:26.386Z,98998.56
2022-10-06T08:29:57.346Z,99001.16
2022-10-06T08:32:30.223Z,99009.00
2022-10-06T08:35:00.429Z,99008.09
2022-10-06T08:37:30.649Z,99014.84
2022-10-06T08:40:01.166Z,99009.25
2022-10-06T08:42:40.205Z,99015.16
2022-10-06T08:45:19.303Z,99020.28
2022-10-06T08:48:02.733Z,99028.31
2022-10-06T08:50:39.080Z,99017.50
2022-10-06T08:53:19.078Z,99028.25
2022-10-06T08:55:54.697Z,99037.69
2022-10-06T08:58:47.430Z,99036.16
2022-10-06T09:01:23.625Z,99029.31
2022-10-06T09:04:02.005Z,99039.63
2022-10-06T09:06:47.689Z,99046.19
2022-10-06T09:09:30.990Z,99039.78
2022-10-06T09:12:12.184Z,99045.75
2022-10-06T09:14:48.508Z,99050.69
2022-10-06T09:17:26.318Z,99045.94
2022-10-06T09:20:04.217Z,99051.84
2022-10-06T09:22:35.618Z,99047.84
2022-10-06T09:25:20.260Z,99055.47
2022-10-06T09:27:56.876Z,99059.13
2022-10-06T09:30:28.407Z,99047.91
2022-10-06T09:33:02.883Z,99056.91
2022-10-06T09:35:37.258Z,99063.13
2022-10-06T09:38:09.351Z,99060.53
2022-10-06T09:40:44.595Z,99068.41
2022-10-06T09:43:25.625Z,99064.03
2022-10-06T09:45:58.433Z,99062.03
2022-10-06T09:48:30.094Z,99063.00
2022-10-06T09:51:17.688Z,99080.47
2022-10-06T09:54:10.605Z,99076.13
2022-10-06T09:56:45.298Z,99069.44
2022-10-06T09:59:25.141Z,99070.84
2022-10-06T10:01:57.872Z,99076.28
2022-10-06T10:04:31.255Z,99081.16
2022-10-06T10:07:30.609Z,99066.06
2022-10-06T10:10:23.568Z,99071.88
2022-10-06T10:12:55.141Z,99070.38
2022-10-06T10:15:34.066Z,99084.63
2022-10-06T10:18:07.107Z,99087.00
2022-10-06T10:20:40.627Z,99084.94
2022-10-06T10:23:31.105Z,99085.38
2022-10-06T10:26:17.637Z,99095.44
2022-10-06T10:29:33.059Z,99091.78
2022-10-06T10:32:15.505Z,99106.19
2022-10-06T10:35:11.671Z,99095.63
2022-10-06T10:37:48.091Z,99101.25
2022-10-06T10:40:33.260Z,99095.69
2022-10-06T10:43:17.619Z,99094.47
2022-10-06T10:45:52.914Z,99088.88
2022-10-06T10:48:31.508Z,99101.00
2022-10-06T10:51:08.750Z,99111.38
2022-10-06T10:53:49.674Z,99099.22
2022-10-06T10:56:26.866Z,99105.38
2022-10-06T10:59:04.348Z,99105.88
2022-10-06T11:01:43.535Z,99111.84
2022-10-06T11:04:15.464Z,99105.28
2022-10-06T11:07:17.965Z,99107.28
2022-10-06T11:09:57.663Z,99104.41
2022-10-06T11:13:18.121Z,99085.81
2022-10-06T11:16:16.400Z,99089.66
2022-10-06T11:19:18.280Z,99099.66
2022-10-06T11:21:59.633Z,99104.59
2022-10-06T11:24:43.016Z,99095.56
2022-10-06T11:27:26.164Z,99097.00
2022-10-06T11:30:09.407Z,99092.22
2022-10-06T11:33:02.113Z,99084.34
2022-10-06T11:35:38.042Z,99098.00
2022-10-06T11:38:19.068Z,99095.91
2022-10-06T11:41:10.414Z,99092.91
2022-10-06T11:43:52.088Z,99094.91
2022-10-06T11:46:41.320Z,99096.00
2022-10-06T11:49:56.090Z,99090.78
2022-10-06T11:52:56.033Z,99092.22
2022-10-06T11:55:29.187Z,99099.00
2022-10-06T11:58:41.980Z,99104.00
2022-10-06T12:01:05.803Z,99100.53
2022-10-06T12:04:23.583Z,99093.88
2022-10-06T12:07:06.664Z,99096.56
2022-10-06T12:09:53.133Z,99095.88
2022-10-06T12:13:07.121Z,99089.22
2022-10-06T12:19:19.787Z,99083.19
2022-10-06T12:21:57.993Z,99082.25
2022-10-06T12:24:42.382Z,99084.25
2022-10-06T12:27:33.475Z,99092.00
2022-10-06T12:30:16.207Z,99081.38
2022-10-06T12:32:53.264Z,99075.09
2022-10-06T12:35:34.258Z,99081.22
2022-10-06T12:38:07.468Z,99075.03
2022-10-06T12:40:56.286Z,99087.41
2022-10-06T12:43:57.183Z,99077.25
2022-10-06T12:46:46.537Z,99079.09
2022-10-06T12:49:37.024Z,99074.50
2022-10-06T12:52:38.241Z,99078.84
2022-10-06T12:55:32.293Z,99081.38
2022-10-06T12:58:02.647Z,99076.31
2022-10-06T13:00:40.549Z,99079.50
2022-10-06T13:03:19.479Z,99081.78
2022-10-06T13:05:55.484Z,99087.06
2022-10-06T13:08:30.484Z,99091.09
2022-10-06T13:11:18.808Z,99087.13
2022-10-06T13:13:54.919Z,99091.59
2022-10-06T13:16:29.146Z,99084.59
2022-10-06T13:19:01.676Z,99087.53
2022-10-06T13:21:33.268Z,99077.19
2022-10-06T13:24:06.892Z,99080.25
2022-10-06T13:26:37.247Z,99094.09
2022-10-06T13:29:07.649Z,99092.06
2022-10-06T13:31:39.096Z,99091.66
2022-10-06T13:34:14.100Z,99088.72
2022-10-06T13:36:46.957Z,99086.06
2022-10-06T13:39:22.655Z,99082.94
2022-10-06T13:41:56.783Z,99082.50
2022-10-06T13:44:38.143Z,99095.63
2022-10-06T13:47:18.411Z,99093.25
2022-10-06T13:49:53.628Z,99099.00
2022-10-06T13:52:28.575Z,99104.63
2022-10-06T13:55:03.591Z,99106.59
2022-10-06T13:57:43.477Z,99120.81
2022-10-06T14:00:24.362Z,99112.88
2022-10-06T14:02:59.008Z,99112.56
2022-10-06T14:05:34.384Z,99107.16
2022-10-06T14:08:06.889Z,99104.34
2022-10-06T14:10:50.634Z,99094.06
2022-10-06T14:13:23.743Z,99111.81
2022-10-06T14:15:56.438Z,99118.19
2022-10-06T14:18:30.243Z,99115.34
2022-10-06T14:21:00.944Z,99119.13
2022-10-06T14:23:47.263Z,99116.34
2022-10-06T14:26:22.993Z,99114.63
2022-10-06T14:28:55.877Z,99103.38
2022-10-06T14:31:29.343Z,99106.56
2022-10-06T14:33:59.929Z,99108.19
2022-10-06T14:36:31.403Z,99113.00
2022-10-06T14:39:02.911Z,99110.41
2022-10-06T14:41:35.857Z,99110.31
2022-10-06T14:44:09.929Z,99101.88
2022-10-06T14:46:42.246Z,99108.44
2022-10-06T14:49:14.626Z,99108.16
2022-10-06T14:51:47.017Z,99104.75
2022-10-06T14:54:17.976Z,99104.28
2022-10-06T14:56:52.385Z,99113.06
2022-10-06T14:59:25.036Z,99110.00
2022-10-06T15:01:55.291Z,99117.19
2022-10-06T15:04:28.194Z,99117.34
2022-10-06T15:07:10.837Z,99116.94
2022-10-06T15:09:41.195Z,99117.28
2022-10-06T15:12:14.101Z,99106.47
2022-10-06T15:14:44.472Z,99099.97
2022-10-06T15:17:15.093Z,99101.69
2022-10-06T15:19:45.751Z,99101.16
2022-10-06T15:22:15.968Z,99106.31
2022-10-06T15:24:50.403Z,99108.69
2022-10-06T15:27:35.719Z,99107.75
2022-10-06T15:30:06.330Z,99107.38
2022-10-06T15:32:36.592Z,99107.53
2022-10-06T15:35:06.615Z,99102.22
2022-10-06T15:37:39.584Z,99102.53
2022-10-06T15:40:11.166Z,99109.66
2022-10-06T15:42:44.052Z,99112.84
2022-10-06T15:45:14.334Z,99118.03
2022-10-06T15:47:44.568Z,99117.25
2022-10-06T15:50:18.715Z,99118.25
2022-10-06T15:52:49.463Z,99115.91
2022-10-06T15:55:20.391Z,99101.50
2022-10-06T15:57:53.272Z,99103.44
2022-10-06T16:00:23.443Z,99103.66
2022-10-06T16:02:53.603Z,99106.84
2022-10-06T16:05:46.797Z,99107.28
2022-10-06T16:08:16.984Z,99115.31
2022-10-06T16:10:53.066Z,99113.47
2022-10-06T16:13:25.995Z,99102.03
2022-10-06T16:15:56.828Z,99107.97
2022-10-06T16:18:28.731Z,99118.31
2022-10-06T16:20:59.112Z,99115.84
2022-10-06T16:23:29.281Z,99118.28
2022-10-06T16:25:59.458Z,99112.75
2022-10-06T16:28:32.285Z,99115.91
2022-10-06T16:31:02.604Z,99121.59
2022-10-06T16:33:32.833Z,99121.34
2022-10-06T16:36:03.017Z,99123.44
2022-10-06T16:38:33.161Z,99128.72
2022-10-06T16:41:05.363Z,99136.31
2022-10-06T16:43:41.030Z,99142.47
2022-10-06T16:46:14.810Z,99142.59
2022-10-06T16:48:47.707Z,99143.63
2022-10-06T16:51:20.527Z,99144.97
2022-10-06T16:53:53.453Z,99151.16
2022-10-06T16:56:27.082Z,99147.56
2022-10-06T16:59:03.967Z,99148.19
2022-10-06T17:01:36.722Z,99150.47
2022-10-06T17:04:09.338Z,99163.75
2022-10-06T17:06:41.219Z,99160.34
2022-10-06T17:09:14.524Z,99169.09
2022-10-06T17:11:47.255Z,99160.56
2022-10-06T17:14:21.386Z,99171.50
2022-10-06T17:16:53.865Z,99174.53
2022-10-06T17:19:28.745Z,99172.56
2022-10-06T17:22:00.233Z,99170.13
2022-10-06T17:24:31.346Z,99167.47
2022-10-06T17:27:01.837Z,99167.84
2022-10-06T17:29:34.627Z,99165.19
2022-10-06T17:32:05.876Z,99170.97
2022-10-06T17:34:36.910Z,99162.16
2022-10-06T17:37:07.704Z,99169.63
2022-10-06T17:39:38.036Z,99167.63
2022-10-06T17:42:09.130Z,99171.69
2022-10-06T17:44:42.035Z,99170.63
2022-10-06T17:47:12.746Z,99168.16
2022-10-06T17:49:42.935Z,99172.81
2022-10-06T17:52:13.158Z,99160.56
2022-10-06T17:54:44.854Z,99165.53
2022-10-06T17:57:15.016Z,99175.47
2022-10-06T17:59:47.911Z,99171.28
2022-10-06T18:02:18.197Z,99167.88
2022-10-06T18:04:50.465Z,99171.75
2022-10-06T18:07:22.704Z,99173.91
2022-10-06T18:10:05.065Z,99172.22
2022-10-06T18:12:38.723Z,99165.69
2022-10-06T18:15:13.214Z,99169.59
2022-10-06T18:17:44.187Z,99167.25
2022-10-06T18:20:14.485Z,99170.19
2022-10-06T18:22:44.877Z,99163.22
2022-10-06T18:25:16.994Z,99161.19
2022-10-06T18:27:48.794Z,99156.25
2022-10-06T18:30:24.629Z,99169.41
2022-10-06T18:38:41.703Z,99172.63
2022-10-06T18:41:15.999Z,99171.53
2022-10-06T18:43:46.953Z,99176.47
2022-10-06T18:46:32.856Z,99171.50
2022-10-06T18:49:10.516Z,99174.09
2022-10-06T18:51:43.502Z,99175.50
2022-10-06T18:54:17.440Z,99176.72
2022-10-06T18:56:50.825Z,99168.97
2022-10-06T18:59:23.579Z,99171.44
2022-10-06T19:02:00.487Z,99171.44
2022-10-06T19:04:32.903Z,99177.00
2022-10-06T19:07:03.089Z,99172.38
2022-10-06T19:09:33.409Z,99178.84
2022-10-06T19:12:03.644Z,99184.66
2022-10-06T19:14:37.944Z,99186.38
2022-10-06T19:17:14.457Z,99185.72
2022-10-06T19:19:48.186Z,99188.34
2022-10-06T19:22:20.112Z,99181.34
2022-10-06T19:24:50.758Z,99186.75
2022-10-06T19:27:25.673Z,99196.00
2022-10-06T19:29:58.039Z,99193.50
2022-10-06T19:32:34.541Z,99195.63
2022-10-06T19:35:09.960Z,99194.69
2022-10-06T19:37:41.185Z,99197.13
2022-10-06T19:40:11.582Z,99191.84
2022-10-06T19:42:48.101Z,99201.22
2022-10-06T19:45:19.324Z,99201.22
2022-10-06T19:47:52.292Z,99188.41
2022-10-06T19:50:22.644Z,99198.44
2022-10-06T19:52:52.878Z,99203.81
2022-10-06T19:55:23.164Z,99196.03
2022-10-06T19:57:53.636Z,99205.16
2022-10-06T20:00:23.937Z,99196.94
2022-10-06T20:02:56.981Z,99198.78
2022-10-06T20:05:27.194Z,99198.88
2022-10-06T20:07:57.300Z,99206.78
2022-10-06T20:10:27.413Z,99196.25
2022-10-06T20:12:58.766Z,99204.78
2022-10-06T20:15:28.950Z,99201.81
2022-10-06T20:18:02.071Z,99201.81
2022-10-06T20:20:32.301Z,99213.72
2022-10-06T20:23:02.340Z,99211.81
2022-10-06T20:25:34.269Z,99200.84
2022-10-06T20:28:08.852Z,99198.19
2022-10-06T20:30:39.400Z,99197.66
2022-10-06T20:33:12.217Z,99202.44
2022-10-06T20:35:42.436Z,99209.56
2022-10-06T20:38:13.002Z,99213.22
2022-10-06T20:40:47.405Z,99211.34
2022-10-06T20:43:17.705Z,99202.81
2022-10-06T20:45:49.071Z,99210.03
2022-10-06T20:48:21.944Z,99213.25
2022-10-06T20:50:52.070Z,99202.59
2022-10-06T20:53:22.176Z,99207.03
2022-10-06T20:55:54.825Z,99203.81
2022-10-06T20:58:25.290Z,99198.16
2022-10-06T21:00:55.555Z,99210.63
2022-10-06T21:03:28.329Z,99208.19
2022-10-06T21:05:58.524Z,99207.50
2022-10-06T21:08:28.597Z,99204.50
2022-10-06T21:10:59.415Z,99200.22
2022-10-06T21:13:30.033Z,99199.22
2022-10-06T21:16:00.839Z,99203.22
2022-10-06T21:18:33.931Z,99205.66
2022-10-06T21:21:07.934Z,99193.56
2022-10-06T21:23:41.470Z,99191.34
2022-10-06T21:26:15.409Z,99185.91
2022-10-06T21:28:46.016Z,99192.25
2022-10-06T21:31:18.993Z,99192.34
2022-10-06T21:33:52.543Z,99180.16
2022-10-06T21:36:24.833Z,99175.47
2022-10-06T21:38:57.566Z,99169.38
2022-10-06T21:41:32.537Z,99172.28
2022-10-06T21:44:05.276Z,99181.47
2022-10-06T21:46:38.440Z,99170.38
2022-10-06T21:49:14.790Z,99168.50
2022-10-06T21:51:48.171Z,99173.69
2022-10-06T21:54:19.165Z,99171.63
2022-10-06T21:56:49.082Z,99161.06
2022-10-06T21:59:19.365Z,99164.28
2022-10-06T22:01:52.065Z,99172.25
2022-10-06T22:04:24.984Z,99167.06
2022-10-06T22:06:55.116Z,99169.59
2022-10-06T22:09:25.322Z,99169.66
2022-10-06T22:11:55.514Z,99159.59
2022-10-06T22:14:28.580Z,99163.47
2022-10-06T22:16:58.794Z,99173.00
2022-10-06T22:19:31.574Z,99171.91
2022-10-06T22:22:01.728Z,99160.03
2022-10-06T22:24:32.184Z,99164.34
2022-10-06T22:27:02.480Z,99162.88
2022-10-06T22:29:33.018Z,99166.22
2022-10-06T22:32:03.241Z,99163.91
2022-10-06T22:34:35.971Z,99165.19
2022-10-06T22:37:06.157Z,99174.75
2022-10-06T22:39:36.914Z,99168.94
2022-10-06T22:42:07.499Z,99168.72
2022-10-06T22:44:37.715Z,99178.72
2022-10-06T22:47:08.164Z,99173.59
2022-10-06T22:49:41.013Z,99167.28
2022-10-06T22:52:11.169Z,99176.38
2022-10-06T22:54:41.321Z,99174.72
2022-10-06T22:57:11.428Z,99165.72
2022-10-06T22:59:42.003Z,99174.25
2022-10-06T23:02:12.212Z,99163.84
2022-10-06T23:04:45.141Z,99163.06
2022-10-06T23:07:15.294Z,99168.59
2022-10-06T23:09:45.521Z,99161.50
2022-10-06T23:12:15.742Z,99157.28
2022-10-06T23:14:46.560Z,99155.28
2022-10-06T23:17:17.628Z,99149.75
2022-10-06T23:19:50.921Z,99151.50
2022-10-06T23:22:21.156Z,99153.16
2022-10-06T23:24:51.367Z,99150.38
2022-10-06T23:27:21.522Z,99149.59
2022-10-06T23:29:51.662Z,99143.75
2022-10-06T23:32:21.847Z,99144.84
2022-10-06T23:34:55.358Z,99144.28
2022-10-06T23:37:25.550Z,99145.94
2022-10-06T23:39:55.816Z,99145.56
2022-10-06T23:42:26.032Z,99140.94
2022-10-06T23:44:56.279Z,99143.69
2022-10-06T23:47:26.523Z,99143.34
2022-10-06T23:49:59.302Z,99145.78
2022-10-06T23:52:29.413Z,99141.00
2022-10-06T23:54:59.783Z,99138.34
2022-10-06T23:57:30.111Z,99137.91
